createdAt,value
2017-12-13T00:01:44.559Z,1007.52
2017-12-13T00:02:44.574Z,1007.45
2017-12-13T00:04:37.487Z,1007.49
2017-12-13T00:05:37.480Z,1007.48
2017-12-13T00:07:30.385Z,1007.47
2017-12-13T00:08:30.397Z,1007.45
2017-12-13T00:10:23.302Z,1007.45
2017-12-13T00:11:23.297Z,1007.47
2017-12-13T00:13:16.196Z,1007.45
2017-12-13T00:14:16.220Z,1007.43
2017-12-13T00:16:09.124Z,1007.39
2017-12-13T00:17:09.117Z,1007.40
2017-12-13T00:19:02.031Z,1007.36
2017-12-13T00:20:02.027Z,1007.35
2017-12-13T00:21:54.923Z,1007.37
2017-12-13T00:22:54.935Z,1007.39
2017-12-13T00:24:47.849Z,1007.40
2017-12-13T00:25:47.844Z,1007.37
2017-12-13T00:27:40.738Z,1007.38
2017-12-13T00:28:40.754Z,1007.37
2017-12-13T00:30:33.663Z,1007.34
2017-12-13T00:31:33.662Z,1007.34
2017-12-13T00:33:26.558Z,1007.33
2017-12-13T00:34:26.568Z,1007.34
2017-12-13T00:36:19.479Z,1007.32
2017-12-13T00:37:19.476Z,1007.27
2017-12-13T00:39:12.392Z,1007.27
2017-12-13T00:40:12.384Z,1007.27
2017-12-13T00:42:05.279Z,1007.22
2017-12-13T00:43:05.293Z,1007.22
2017-12-13T00:44:58.203Z,1007.17
2017-12-13T00:45:58.198Z,1007.14
2017-12-13T00:47:51.090Z,1007.16
2017-12-13T00:48:51.113Z,1007.12
2017-12-13T00:50:44.018Z,1007.11
2017-12-13T00:51:44.012Z,1007.11
2017-12-13T00:53:36.906Z,1007.09
2017-12-13T00:54:36.918Z,1007.09
2017-12-13T00:56:29.827Z,1007.11
2017-12-13T00:57:29.823Z,1007.10
2017-12-13T00:59:22.736Z,1007.09
2017-12-13T01:00:22.731Z,1007.08
2017-12-13T01:02:15.624Z,1007.08
2017-12-13T01:03:15.637Z,1007.04
2017-12-13T01:05:08.544Z,1007.05
2017-12-13T01:06:08.549Z,1007.02
2017-12-13T01:08:01.433Z,1007.00
2017-12-13T01:09:01.447Z,1006.97
2017-12-13T01:10:54.360Z,1006.99
2017-12-13T01:11:54.358Z,1006.98
2017-12-13T01:13:47.251Z,1006.98
2017-12-13T01:14:47.262Z,1007.01
2017-12-13T01:16:40.176Z,1006.91
2017-12-13T01:17:40.172Z,1006.94
2017-12-13T01:19:33.124Z,1006.91
2017-12-13T01:20:33.078Z,1006.91
2017-12-13T01:22:25.967Z,1006.91
2017-12-13T01:23:25.982Z,1006.88
2017-12-13T01:25:18.898Z,1006.98
2017-12-13T01:26:18.891Z,1006.89
2017-12-13T01:28:11.784Z,1006.86
2017-12-13T01:29:11.797Z,1006.86
2017-12-13T01:31:04.702Z,1006.86
2017-12-13T01:32:04.698Z,1006.84
2017-12-13T01:33:57.594Z,1006.82
2017-12-13T01:34:57.604Z,1006.80
2017-12-13T01:36:50.511Z,1006.86
2017-12-13T01:37:50.508Z,1006.84
2017-12-13T01:39:43.420Z,1006.80
2017-12-13T01:40:43.414Z,1006.84
2017-12-13T01:42:36.308Z,1006.81
2017-12-13T01:43:36.320Z,1006.83
2017-12-13T01:45:29.230Z,1006.86
2017-12-13T01:46:29.222Z,1006.84
2017-12-13T01:48:22.161Z,1006.82
2017-12-13T01:49:22.185Z,1006.79
2017-12-13T01:51:15.040Z,1006.80
2017-12-13T01:52:15.034Z,1006.75
2017-12-13T01:54:07.924Z,1006.69
2017-12-13T01:55:07.940Z,1006.69
2017-12-13T01:57:00.849Z,1006.70
2017-12-13T01:58:00.842Z,1006.67
2017-12-13T01:59:53.755Z,1006.67
2017-12-13T02:00:53.755Z,1006.66
2017-12-13T02:02:46.644Z,1006.68
2017-12-13T02:03:46.653Z,1006.62
2017-12-13T02:05:39.565Z,1006.61
2017-12-13T02:06:39.571Z,1006.61
2017-12-13T02:08:32.451Z,1006.63
2017-12-13T02:09:32.464Z,1006.57
2017-12-13T02:11:25.372Z,1006.56
2017-12-13T02:12:25.368Z,1006.53
2017-12-13T02:14:18.260Z,1006.50
2017-12-13T02:15:18.273Z,1006.48
2017-12-13T02:17:11.183Z,1006.44
2017-12-13T02:18:12.087Z,1006.43
2017-12-13T02:20:04.112Z,1006.38
2017-12-13T02:21:04.108Z,1006.35
2017-12-13T02:22:57.029Z,1006.33
2017-12-13T02:23:57.024Z,1006.34
2017-12-13T02:25:49.947Z,1006.33
2017-12-13T02:26:49.943Z,1006.33
2017-12-13T02:28:42.847Z,1006.28
2017-12-13T02:29:42.859Z,1006.21
2017-12-13T02:31:35.771Z,1006.21
2017-12-13T02:32:35.764Z,1006.20
2017-12-13T02:34:28.656Z,1006.18
2017-12-13T02:35:28.733Z,1006.17
2017-12-13T02:37:21.580Z,1006.07
2017-12-13T02:38:21.573Z,1006.09
2017-12-13T02:40:14.484Z,1006.07
2017-12-13T02:41:14.481Z,1006.04
2017-12-13T02:43:07.484Z,1006.08
2017-12-13T02:44:07.420Z,1006.05
2017-12-13T02:46:00.333Z,1006.00
2017-12-13T02:47:00.327Z,1005.98
2017-12-13T02:48:53.348Z,1005.89
2017-12-13T02:49:53.234Z,1005.91
2017-12-13T02:51:46.141Z,1005.83
2017-12-13T02:52:46.134Z,1005.79
2017-12-13T02:54:39.027Z,1005.82
2017-12-13T02:55:39.038Z,1005.83
2017-12-13T02:57:31.949Z,1005.81
2017-12-13T02:58:31.943Z,1005.78
2017-12-13T03:00:24.850Z,1005.81
2017-12-13T03:01:24.844Z,1005.83
2017-12-13T03:03:17.738Z,1005.80
2017-12-13T03:04:17.752Z,1005.75
2017-12-13T03:06:10.665Z,1005.70
2017-12-13T03:07:10.656Z,1005.74
2017-12-13T03:09:03.544Z,1005.70
2017-12-13T03:10:03.559Z,1005.67
2017-12-13T03:11:56.470Z,1005.64
2017-12-13T03:12:56.464Z,1005.65
2017-12-13T03:14:49.356Z,1005.60
2017-12-13T03:15:49.368Z,1005.60
2017-12-13T03:17:42.276Z,1005.58
2017-12-13T03:18:42.270Z,1005.57
2017-12-13T03:20:35.181Z,1005.54
2017-12-13T03:21:35.175Z,1005.53
2017-12-13T03:23:28.081Z,1005.48
2017-12-13T03:24:28.093Z,1005.46
2017-12-13T03:26:21.001Z,1005.45
2017-12-13T03:27:20.995Z,1005.43
2017-12-13T03:29:13.888Z,1005.39
2017-12-13T03:30:13.906Z,1005.35
2017-12-13T03:32:06.811Z,1005.37
2017-12-13T03:33:06.807Z,1005.35
2017-12-13T03:34:59.701Z,1005.31
2017-12-13T03:35:59.714Z,1005.30
2017-12-13T03:37:52.627Z,1005.33
2017-12-13T03:38:52.619Z,1005.36
2017-12-13T03:40:45.540Z,1005.43
2017-12-13T03:41:45.525Z,1005.41
2017-12-13T03:43:38.414Z,1005.40
2017-12-13T03:44:38.425Z,1005.32
2017-12-13T03:46:31.334Z,1005.33
2017-12-13T03:47:31.329Z,1005.28
2017-12-13T03:49:24.219Z,1005.20
2017-12-13T03:50:24.235Z,1005.24
2017-12-13T03:52:17.151Z,1005.19
2017-12-13T03:53:17.137Z,1005.20
2017-12-13T03:55:10.026Z,1005.18
2017-12-13T03:56:10.037Z,1005.14
2017-12-13T03:58:02.945Z,1005.15
2017-12-13T03:59:02.940Z,1005.15
2017-12-13T04:00:55.854Z,1005.11
2017-12-13T04:01:55.847Z,1005.11
2017-12-13T04:03:48.740Z,1005.04
2017-12-13T04:04:48.757Z,1005.04
2017-12-13T04:06:42.653Z,1005.03
2017-12-13T04:07:42.649Z,1005.00
2017-12-13T04:09:35.541Z,1004.97
2017-12-13T04:10:35.558Z,1004.96
2017-12-13T04:12:28.465Z,1004.92
2017-12-13T04:13:28.460Z,1004.91
2017-12-13T04:15:21.353Z,1004.88
2017-12-13T04:16:21.367Z,1004.86
2017-12-13T04:18:14.277Z,1004.82
2017-12-13T04:19:14.271Z,1004.79
2017-12-13T04:21:07.182Z,1004.75
2017-12-13T04:22:07.183Z,1004.75
2017-12-13T04:24:00.073Z,1004.74
2017-12-13T04:25:00.084Z,1004.76
2017-12-13T04:26:52.999Z,1004.70
2017-12-13T04:27:52.989Z,1004.71
2017-12-13T04:29:45.883Z,1004.68
2017-12-13T04:30:45.896Z,1004.71
2017-12-13T04:32:38.804Z,1004.71
2017-12-13T04:33:38.799Z,1004.69
2017-12-13T04:35:31.917Z,1004.68
2017-12-13T04:36:31.928Z,1004.69
2017-12-13T04:38:24.839Z,1004.64
2017-12-13T04:39:24.831Z,1004.66
2017-12-13T04:41:17.742Z,1004.60
2017-12-13T04:42:17.735Z,1004.59
2017-12-13T04:44:10.626Z,1004.49
2017-12-13T04:45:10.640Z,1004.43
2017-12-13T04:47:03.549Z,1004.41
2017-12-13T04:48:03.545Z,1004.39
2017-12-13T04:49:56.434Z,1004.39
2017-12-13T04:50:56.448Z,1004.46
2017-12-13T04:52:49.367Z,1004.40
2017-12-13T04:53:49.364Z,1004.34
2017-12-13T04:55:42.252Z,1004.28
2017-12-13T04:56:42.266Z,1004.27
2017-12-13T04:58:35.180Z,1004.29
2017-12-13T04:59:35.170Z,1004.27
2017-12-13T05:01:28.081Z,1004.28
2017-12-13T05:02:28.076Z,1004.23
2017-12-13T05:04:20.971Z,1004.23
2017-12-13T05:05:20.983Z,1004.20
2017-12-13T05:07:13.892Z,1004.17
2017-12-13T05:08:13.888Z,1004.15
2017-12-13T05:10:06.774Z,1004.13
2017-12-13T05:11:06.789Z,1004.13
2017-12-13T05:12:59.699Z,1004.10
2017-12-13T05:13:59.695Z,1004.11
2017-12-13T05:15:52.584Z,1004.03
2017-12-13T05:16:52.597Z,1003.98
2017-12-13T05:18:45.508Z,1003.88
2017-12-13T05:19:45.504Z,1003.92
2017-12-13T05:21:38.413Z,1003.88
2017-12-13T05:22:38.406Z,1003.86
2017-12-13T05:24:31.299Z,1003.88
2017-12-13T05:25:31.314Z,1003.90
2017-12-13T05:27:24.222Z,1003.84
2017-12-13T05:28:24.219Z,1003.83
2017-12-13T05:30:17.108Z,1003.76
2017-12-13T05:31:17.119Z,1003.68
2017-12-13T05:33:10.035Z,1003.68
2017-12-13T05:34:10.027Z,1003.65
2017-12-13T05:36:02.918Z,1003.62
2017-12-13T05:37:02.933Z,1003.57
2017-12-13T05:38:55.845Z,1003.61
2017-12-13T05:39:55.841Z,1003.57
2017-12-13T05:41:48.751Z,1003.52
2017-12-13T05:42:48.744Z,1003.52
2017-12-13T05:44:41.637Z,1003.49
2017-12-13T05:45:41.650Z,1003.46
2017-12-13T05:47:34.569Z,1003.46
2017-12-13T05:48:34.564Z,1003.43
2017-12-13T05:50:27.454Z,1003.39
2017-12-13T05:51:27.485Z,1003.38
2017-12-13T05:53:20.383Z,1003.36
2017-12-13T05:54:20.378Z,1003.29
2017-12-13T05:56:13.272Z,1003.32
2017-12-13T05:57:13.287Z,1003.31
2017-12-13T05:59:06.193Z,1003.19
2017-12-13T06:00:06.189Z,1003.18
2017-12-13T06:01:59.098Z,1003.15
2017-12-13T06:02:59.094Z,1003.14
2017-12-13T06:04:51.982Z,1003.13
2017-12-13T06:05:51.994Z,1003.11
2017-12-13T06:07:44.906Z,1003.09
2017-12-13T06:08:44.899Z,1003.09
2017-12-13T06:10:37.833Z,1003.09
2017-12-13T06:11:37.804Z,1003.03
2017-12-13T06:13:30.714Z,1003.00
2017-12-13T06:14:30.706Z,1002.97
2017-12-13T06:16:23.598Z,1002.93
2017-12-13T06:17:23.618Z,1002.96
2017-12-13T06:19:16.523Z,1002.87
2017-12-13T06:20:16.516Z,1002.85
2017-12-13T06:22:09.436Z,1002.79
2017-12-13T06:23:09.418Z,1002.81
2017-12-13T06:25:02.311Z,1002.79
2017-12-13T06:26:02.322Z,1002.78
2017-12-13T06:27:55.232Z,1002.74
2017-12-13T06:28:55.221Z,1002.73
2017-12-13T06:30:48.116Z,1002.68
2017-12-13T06:31:48.126Z,1002.69
2017-12-13T06:33:41.037Z,1002.60
2017-12-13T06:34:41.030Z,1002.58
2017-12-13T06:36:33.924Z,1002.61
2017-12-13T06:37:33.935Z,1002.60
2017-12-13T06:39:26.844Z,1002.58
2017-12-13T06:40:26.839Z,1002.56
2017-12-13T06:42:19.749Z,1002.56
2017-12-13T06:43:19.743Z,1002.53
2017-12-13T06:45:12.639Z,1002.50
2017-12-13T06:46:12.653Z,1002.47
2017-12-13T06:48:05.561Z,1002.40
2017-12-13T06:49:05.596Z,1002.36
2017-12-13T06:50:58.444Z,1002.32
2017-12-13T06:51:58.458Z,1002.33
2017-12-13T06:53:51.368Z,1002.31
2017-12-13T06:54:51.364Z,1002.33
2017-12-13T06:56:44.260Z,1002.28
2017-12-13T06:57:44.272Z,1002.26
2017-12-13T06:59:37.181Z,1002.20
2017-12-13T07:00:37.174Z,1002.22
2017-12-13T07:02:30.080Z,1002.18
2017-12-13T07:03:30.076Z,1002.14
2017-12-13T07:05:22.967Z,1002.15
2017-12-13T07:06:22.982Z,1002.07
2017-12-13T07:08:15.893Z,1002.04
2017-12-13T07:09:15.885Z,1002.00
2017-12-13T07:11:08.778Z,1002.02
2017-12-13T07:12:08.792Z,1001.96
2017-12-13T07:14:01.703Z,1001.93
2017-12-13T07:15:01.720Z,1001.87
2017-12-13T07:16:54.601Z,1001.87
2017-12-13T07:17:54.616Z,1001.85
2017-12-13T07:19:47.522Z,1001.82
2017-12-13T07:20:47.517Z,1001.79
2017-12-13T07:22:40.430Z,1001.79
2017-12-13T07:23:40.425Z,1001.76
2017-12-13T07:25:33.316Z,1001.72
2017-12-13T07:26:33.329Z,1001.65
2017-12-13T07:28:26.238Z,1001.63
2017-12-13T07:29:26.233Z,1001.60
2017-12-13T07:31:19.122Z,1001.54
2017-12-13T07:32:19.143Z,1001.57
2017-12-13T07:34:12.049Z,1001.51
2017-12-13T07:35:12.043Z,1001.48
2017-12-13T07:37:04.934Z,1001.52
2017-12-13T07:38:04.947Z,1001.45
2017-12-13T07:39:57.856Z,1001.46
2017-12-13T07:40:57.851Z,1001.45
2017-12-13T07:42:50.806Z,1001.43
2017-12-13T07:43:50.756Z,1001.43
2017-12-13T07:45:43.811Z,1001.40
2017-12-13T07:46:43.826Z,1001.41
2017-12-13T07:48:36.888Z,1001.38
2017-12-13T07:49:36.884Z,1001.35
2017-12-13T07:51:29.922Z,1001.26
2017-12-13T07:52:29.938Z,1001.25
2017-12-13T07:54:22.849Z,1001.22
2017-12-13T07:55:22.845Z,1001.24
2017-12-13T07:57:15.734Z,1001.19
2017-12-13T07:58:15.747Z,1001.16
2017-12-13T08:00:08.809Z,1001.09
2017-12-13T08:01:08.802Z,1001.07
2017-12-13T08:03:01.713Z,1001.02
2017-12-13T08:04:01.707Z,1001.00
2017-12-13T08:05:54.606Z,1001.00
2017-12-13T08:06:54.623Z,1000.93
2017-12-13T08:08:47.671Z,1000.87
2017-12-13T08:09:47.664Z,1000.84
2017-12-13T08:11:40.556Z,1000.84
2017-12-13T08:12:40.611Z,1000.74
2017-12-13T08:14:33.678Z,1000.78
2017-12-13T08:15:33.674Z,1000.71
2017-12-13T08:17:26.572Z,1000.73
2017-12-13T08:18:26.581Z,1000.69
2017-12-13T08:20:19.691Z,1000.70
2017-12-13T08:21:19.684Z,1000.63
2017-12-13T08:23:12.597Z,1000.61
2017-12-13T08:24:12.594Z,1000.56
2017-12-13T08:26:05.499Z,1000.55
2017-12-13T08:27:05.504Z,1000.53
2017-12-13T08:28:58.418Z,1000.47
2017-12-13T08:29:58.414Z,1000.51
2017-12-13T08:31:51.305Z,1000.32
2017-12-13T08:32:51.324Z,1000.40
2017-12-13T08:34:44.232Z,1000.28
2017-12-13T08:35:44.230Z,1000.28
2017-12-13T08:37:37.146Z,1000.28
2017-12-13T08:38:37.139Z,1000.24
2017-12-13T08:40:30.052Z,1000.14
2017-12-13T08:41:30.049Z,1000.16
2017-12-13T08:43:22.966Z,1000.11
2017-12-13T08:44:22.957Z,1000.13
2017-12-13T08:46:15.854Z,1000.13
2017-12-13T08:47:15.867Z,1000.10
2017-12-13T08:49:08.784Z,1000.05
2017-12-13T08:50:08.778Z,1000.00
2017-12-13T08:52:01.680Z,1000.00
2017-12-13T08:53:01.697Z,999.99
2017-12-13T08:54:54.621Z,999.87
2017-12-13T08:55:54.608Z,999.88
2017-12-13T08:57:47.538Z,999.91
2017-12-13T08:58:47.518Z,999.90
2017-12-13T09:00:40.413Z,999.80
2017-12-13T09:01:40.426Z,999.77
2017-12-13T09:03:33.342Z,999.74
2017-12-13T09:04:33.341Z,999.73
2017-12-13T09:06:26.234Z,999.71
2017-12-13T09:07:26.250Z,999.69
2017-12-13T09:09:19.166Z,999.67
2017-12-13T09:10:19.160Z,999.68
2017-12-13T09:12:12.059Z,999.68
2017-12-13T09:13:12.074Z,999.68
2017-12-13T09:15:04.987Z,999.60
2017-12-13T09:16:04.980Z,999.60
2017-12-13T09:17:57.903Z,999.57
2017-12-13T09:18:57.896Z,999.52
2017-12-13T09:20:50.793Z,999.59
2017-12-13T09:21:50.808Z,999.58
2017-12-13T09:23:43.732Z,999.60
2017-12-13T09:24:43.718Z,999.56
2017-12-13T09:26:36.614Z,999.46
2017-12-13T09:27:36.632Z,999.46
2017-12-13T09:29:29.543Z,999.39
2017-12-13T09:30:29.538Z,999.41
2017-12-13T09:32:22.436Z,999.34
2017-12-13T09:33:22.450Z,999.36
2017-12-13T09:35:15.361Z,999.33
2017-12-13T09:36:15.358Z,999.27
2017-12-13T09:38:08.280Z,999.23
2017-12-13T09:39:08.271Z,999.17
2017-12-13T09:41:01.166Z,999.10
2017-12-13T09:42:01.184Z,999.06
2017-12-13T09:43:54.097Z,999.08
2017-12-13T09:44:54.092Z,999.05
2017-12-13T09:46:46.991Z,999.05
2017-12-13T09:47:47.003Z,999.00
2017-12-13T09:49:39.919Z,998.97
2017-12-13T09:50:39.916Z,998.92
2017-12-13T09:52:32.813Z,998.83
2017-12-13T09:53:32.827Z,998.79
2017-12-13T09:55:25.741Z,998.77
2017-12-13T09:56:25.735Z,998.73
2017-12-13T09:58:18.807Z,998.64
2017-12-13T09:59:18.801Z,998.64
2017-12-13T10:01:11.836Z,998.57
2017-12-13T10:02:11.855Z,998.52
2017-12-13T10:04:04.768Z,998.47
2017-12-13T10:05:04.767Z,998.44
2017-12-13T10:06:57.662Z,998.40
2017-12-13T10:07:57.677Z,998.34
2017-12-13T10:09:50.594Z,998.29
2017-12-13T10:10:50.588Z,998.28
2017-12-13T10:12:43.485Z,998.13
2017-12-13T10:13:43.502Z,998.13
2017-12-13T10:15:36.414Z,998.05
2017-12-13T10:16:36.410Z,998.07
2017-12-13T10:18:29.304Z,997.93
2017-12-13T10:19:29.320Z,997.97
2017-12-13T10:21:22.234Z,997.86
2017-12-13T10:22:22.235Z,997.89
2017-12-13T10:24:15.147Z,997.82
2017-12-13T10:25:15.141Z,997.81
2017-12-13T10:27:08.044Z,997.73
2017-12-13T10:28:08.059Z,997.71
2017-12-13T10:30:01.000Z,997.71
2017-12-13T10:31:00.971Z,997.66
2017-12-13T10:32:53.871Z,997.59
2017-12-13T10:33:53.885Z,997.60
2017-12-13T10:35:46.800Z,997.45
2017-12-13T10:36:46.794Z,997.45
2017-12-13T10:38:39.690Z,997.41
2017-12-13T10:39:39.705Z,997.31
2017-12-13T10:41:32.641Z,997.26
2017-12-13T10:42:32.618Z,997.18
2017-12-13T10:44:25.531Z,997.17
2017-12-13T10:45:25.526Z,997.10
2017-12-13T10:47:18.442Z,996.96
2017-12-13T10:48:18.439Z,996.94
2017-12-13T10:50:11.352Z,996.84
2017-12-13T10:51:11.349Z,996.77
2017-12-13T10:53:04.247Z,996.70
2017-12-13T10:54:04.261Z,996.75
2017-12-13T10:55:57.182Z,996.68
2017-12-13T10:56:57.179Z,996.65
2017-12-13T10:58:50.076Z,996.64
2017-12-13T10:59:50.090Z,996.64
2017-12-13T11:01:43.013Z,996.50
2017-12-13T11:02:43.002Z,996.45
2017-12-13T11:04:35.914Z,996.47
2017-12-13T11:05:35.911Z,996.43
2017-12-13T11:07:28.813Z,996.43
2017-12-13T11:08:28.822Z,996.33
2017-12-13T11:10:21.940Z,996.34
2017-12-13T11:11:21.939Z,996.26
2017-12-13T11:13:14.866Z,996.26
2017-12-13T11:14:14.851Z,996.24
2017-12-13T11:16:07.952Z,996.16
2017-12-13T11:17:07.960Z,996.05
2017-12-13T11:19:01.839Z,996.02
2017-12-13T11:20:01.855Z,995.94
2017-12-13T11:21:54.770Z,995.85
2017-12-13T11:22:54.766Z,995.82
2017-12-13T11:24:47.682Z,995.80
2017-12-13T11:25:47.679Z,995.72
2017-12-13T11:27:40.770Z,995.68
2017-12-13T11:28:40.786Z,995.57
2017-12-13T11:30:33.713Z,995.52
2017-12-13T11:31:33.712Z,995.49
2017-12-13T11:33:26.788Z,995.44
2017-12-13T11:34:26.802Z,995.38
2017-12-13T11:36:19.859Z,995.29
2017-12-13T11:37:19.856Z,995.31
2017-12-13T11:39:12.750Z,995.29
2017-12-13T11:40:12.767Z,995.23
2017-12-13T11:42:05.682Z,995.09
2017-12-13T11:43:05.679Z,995.10
2017-12-13T11:44:58.598Z,995.01
2017-12-13T11:45:58.590Z,995.02
2017-12-13T11:47:51.490Z,994.97
2017-12-13T11:48:51.504Z,994.95
2017-12-13T11:50:44.418Z,994.88
2017-12-13T11:51:44.413Z,994.90
2017-12-13T11:53:37.462Z,994.79
2017-12-13T11:54:37.476Z,994.79
2017-12-13T11:56:30.536Z,994.67
2017-12-13T11:57:30.532Z,994.68
2017-12-13T11:59:23.428Z,994.63
2017-12-13T12:00:23.445Z,994.53
2017-12-13T12:02:16.545Z,994.52
2017-12-13T12:03:16.544Z,994.51
2017-12-13T12:05:09.457Z,994.43
2017-12-13T12:06:09.454Z,994.38
2017-12-13T12:08:02.356Z,994.36
2017-12-13T12:09:02.373Z,994.35
2017-12-13T12:10:55.286Z,994.24
2017-12-13T12:11:55.284Z,994.21
2017-12-13T12:13:48.343Z,994.19
2017-12-13T12:14:48.360Z,994.06
2017-12-13T12:16:41.425Z,994.06
2017-12-13T12:17:41.422Z,994.06
2017-12-13T12:19:34.316Z,994.01
2017-12-13T12:20:34.332Z,993.95
2017-12-13T12:22:27.248Z,993.92
2017-12-13T12:23:27.245Z,993.92
2017-12-13T12:25:20.384Z,993.90
2017-12-13T12:26:20.382Z,993.87
2017-12-13T12:28:13.277Z,993.76
2017-12-13T12:29:13.293Z,993.67
2017-12-13T12:31:06.211Z,993.68
2017-12-13T12:32:06.207Z,993.68
2017-12-13T12:33:59.109Z,993.58
2017-12-13T12:34:59.126Z,993.52
2017-12-13T12:36:52.120Z,993.47
2017-12-13T12:37:52.035Z,993.45
2017-12-13T12:39:44.930Z,993.48
2017-12-13T12:40:44.947Z,993.39
2017-12-13T12:42:37.859Z,993.34
2017-12-13T12:43:37.855Z,993.39
2017-12-13T12:45:30.783Z,993.28
2017-12-13T12:46:30.789Z,993.26
2017-12-13T12:48:23.680Z,993.15
2017-12-13T12:49:23.694Z,993.10
2017-12-13T12:51:16.608Z,993.06
2017-12-13T12:52:16.605Z,993.10
2017-12-13T12:54:09.514Z,993.05
2017-12-13T12:55:09.515Z,992.94
2017-12-13T12:57:02.434Z,992.96
2017-12-13T12:58:02.430Z,993.00
2017-12-13T12:59:55.327Z,992.95
2017-12-13T13:00:55.342Z,992.95
2017-12-13T13:02:48.256Z,992.82
2017-12-13T13:03:48.255Z,992.79
2017-12-13T13:05:41.171Z,992.76
2017-12-13T13:06:41.168Z,992.71
2017-12-13T13:08:34.064Z,992.70
2017-12-13T13:09:34.077Z,992.67
2017-12-13T13:11:26.992Z,992.64
2017-12-13T13:12:26.991Z,992.64
2017-12-13T13:14:19.886Z,992.57
2017-12-13T13:15:19.901Z,992.56
2017-12-13T13:17:12.814Z,992.53
2017-12-13T13:18:12.823Z,992.53
2017-12-13T13:20:05.706Z,992.45
2017-12-13T13:21:05.721Z,992.45
2017-12-13T13:22:58.637Z,992.41
2017-12-13T13:23:58.633Z,992.35
2017-12-13T13:25:51.550Z,992.32
2017-12-13T13:26:51.543Z,992.25
2017-12-13T13:28:44.444Z,992.25
2017-12-13T13:29:44.457Z,992.23
2017-12-13T13:31:37.370Z,992.15
2017-12-13T13:32:37.370Z,992.18
2017-12-13T13:34:30.293Z,992.14
2017-12-13T13:35:30.312Z,992.10
2017-12-13T13:37:23.216Z,992.05
2017-12-13T13:38:23.255Z,991.98
2017-12-13T13:40:16.089Z,991.99
2017-12-13T13:41:16.166Z,991.98
2017-12-13T13:43:09.220Z,991.94
2017-12-13T13:44:09.057Z,991.94
2017-12-13T13:46:02.020Z,991.89
2017-12-13T13:47:01.976Z,991.85
2017-12-13T13:48:54.894Z,991.81
2017-12-13T13:49:54.912Z,991.82
2017-12-13T13:51:47.903Z,991.76
2017-12-13T13:52:47.781Z,991.73
2017-12-13T13:54:40.709Z,991.69
2017-12-13T13:55:40.676Z,991.70
2017-12-13T13:57:33.665Z,991.65
2017-12-13T13:58:33.619Z,991.61
2017-12-13T14:00:26.538Z,991.64
2017-12-13T14:01:26.542Z,991.59
2017-12-13T14:03:19.499Z,991.59
2017-12-13T14:04:19.434Z,991.56
2017-12-13T14:06:12.322Z,991.52
2017-12-13T14:07:12.317Z,991.50
2017-12-13T14:09:05.231Z,991.43
2017-12-13T14:10:05.242Z,991.41
2017-12-13T14:11:58.160Z,991.39
2017-12-13T14:12:58.152Z,991.36
2017-12-13T14:14:51.072Z,991.39
2017-12-13T14:15:51.063Z,991.25
2017-12-13T14:17:43.988Z,991.19
2017-12-13T14:18:43.977Z,991.22
2017-12-13T14:20:36.876Z,991.29
2017-12-13T14:21:36.891Z,991.30
2017-12-13T14:23:29.810Z,991.19
2017-12-13T14:24:29.805Z,991.25
2017-12-13T14:26:22.720Z,991.25
2017-12-13T14:27:22.713Z,991.18
2017-12-13T14:29:15.611Z,991.07
2017-12-13T14:30:15.627Z,991.18
2017-12-13T14:32:08.547Z,991.13
2017-12-13T14:33:08.538Z,991.13
2017-12-13T14:35:01.438Z,991.07
2017-12-13T14:36:01.449Z,991.06
2017-12-13T14:37:54.366Z,991.07
2017-12-13T14:38:54.363Z,991.09
2017-12-13T14:40:47.264Z,991.04
2017-12-13T14:41:47.272Z,991.03
2017-12-13T14:43:40.186Z,990.96
2017-12-13T14:44:40.183Z,990.95
2017-12-13T14:46:33.099Z,991.02
2017-12-13T14:47:33.094Z,991.03
2017-12-13T14:49:25.990Z,990.98
2017-12-13T14:50:26.007Z,991.02
2017-12-13T14:52:18.919Z,990.98
2017-12-13T14:53:18.917Z,991.05
2017-12-13T14:55:11.809Z,991.04
2017-12-13T14:56:11.826Z,990.99
2017-12-13T14:58:04.742Z,991.00
2017-12-13T14:59:04.741Z,991.03
2017-12-13T15:00:57.675Z,991.01
2017-12-13T15:01:57.649Z,990.99
2017-12-13T15:03:50.544Z,991.02
2017-12-13T15:04:50.561Z,990.96
2017-12-13T15:06:43.667Z,990.99
2017-12-13T15:07:43.665Z,990.98
2017-12-13T15:09:36.559Z,991.01
2017-12-13T15:10:36.574Z,991.02
2017-12-13T15:12:29.494Z,990.94
2017-12-13T15:13:29.490Z,990.96
2017-12-13T15:15:22.384Z,990.95
2017-12-13T15:16:22.405Z,990.97
2017-12-13T15:18:15.444Z,990.91
2017-12-13T15:19:15.315Z,990.84
2017-12-13T15:21:08.226Z,990.90
2017-12-13T15:22:08.225Z,990.93
2017-12-13T15:24:01.124Z,990.89
2017-12-13T15:25:01.187Z,990.89
2017-12-13T15:26:54.046Z,990.89
2017-12-13T15:27:54.044Z,990.90
2017-12-13T15:29:47.082Z,990.90
2017-12-13T15:30:47.099Z,990.86
2017-12-13T15:32:40.008Z,990.92
2017-12-13T15:33:40.006Z,990.93
2017-12-13T15:35:32.914Z,990.83
2017-12-13T15:36:32.930Z,990.88
2017-12-13T15:38:25.848Z,990.79
2017-12-13T15:39:25.843Z,990.79
2017-12-13T15:41:18.770Z,990.80
2017-12-13T15:42:18.797Z,990.82
2017-12-13T15:44:11.652Z,990.84
2017-12-13T15:45:11.665Z,990.82
2017-12-13T15:47:04.579Z,990.82
2017-12-13T15:48:04.575Z,990.80
2017-12-13T15:49:57.470Z,990.78
2017-12-13T15:50:57.483Z,990.70
2017-12-13T15:52:50.396Z,990.74
2017-12-13T15:53:50.394Z,990.74
2017-12-13T15:55:43.287Z,990.79
2017-12-13T15:56:43.305Z,990.65
2017-12-13T15:58:36.214Z,990.74
2017-12-13T15:59:36.214Z,990.71
2017-12-13T16:01:29.108Z,990.71
2017-12-13T16:02:29.124Z,990.67
2017-12-13T16:04:22.041Z,990.61
2017-12-13T16:05:22.037Z,990.67
2017-12-13T16:07:14.949Z,990.65
2017-12-13T16:08:14.947Z,990.65
2017-12-13T16:10:07.844Z,990.60
2017-12-13T16:11:07.859Z,990.63
2017-12-13T16:13:00.831Z,990.62
2017-12-13T16:14:00.829Z,990.58
2017-12-13T16:15:54.275Z,990.54
2017-12-13T16:16:54.307Z,990.57
2017-12-13T16:18:47.208Z,990.55
2017-12-13T16:19:47.200Z,990.59
2017-12-13T16:21:40.094Z,990.47
2017-12-13T16:22:40.110Z,990.52
2017-12-13T16:24:33.026Z,990.46
2017-12-13T16:25:33.022Z,990.50
2017-12-13T16:27:25.937Z,990.41
2017-12-13T16:28:25.931Z,990.46
2017-12-13T16:30:18.826Z,990.40
2017-12-13T16:31:18.905Z,990.40
2017-12-13T16:33:11.760Z,990.42
2017-12-13T16:34:11.751Z,990.33
2017-12-13T16:36:04.658Z,990.32
2017-12-13T16:37:04.828Z,990.32
2017-12-13T16:38:57.580Z,990.29
2017-12-13T16:39:57.578Z,990.29
2017-12-13T16:41:50.649Z,990.25
2017-12-13T16:42:50.647Z,990.22
2017-12-13T16:44:43.553Z,990.21
2017-12-13T16:45:43.560Z,990.27
2017-12-13T16:47:36.576Z,990.17
2017-12-13T16:48:36.499Z,990.21
2017-12-13T16:50:29.365Z,990.16
2017-12-13T16:51:29.380Z,990.13
2017-12-13T16:53:23.483Z,990.09
2017-12-13T16:54:23.493Z,990.05
2017-12-13T16:56:17.554Z,990.02
2017-12-13T16:57:17.564Z,989.99
2017-12-13T16:59:10.476Z,989.92
2017-12-13T17:00:10.485Z,989.95
2017-12-13T17:02:03.393Z,989.98
2017-12-13T17:03:03.395Z,989.92
2017-12-13T17:04:56.287Z,989.97
2017-12-13T17:05:56.300Z,989.91
2017-12-13T17:07:49.262Z,989.87
2017-12-13T17:08:49.211Z,989.83
2017-12-13T17:10:42.133Z,989.81
2017-12-13T17:11:42.122Z,989.81
2017-12-13T17:13:35.035Z,989.75
2017-12-13T17:14:35.031Z,989.66
2017-12-13T17:16:27.931Z,989.67
2017-12-13T17:17:27.944Z,989.59
2017-12-13T17:19:20.861Z,989.50
2017-12-13T17:20:20.863Z,989.52
2017-12-13T17:22:13.810Z,989.53
2017-12-13T17:23:13.792Z,989.47
2017-12-13T17:25:06.687Z,989.41
2017-12-13T17:26:06.706Z,989.38
2017-12-13T17:27:59.631Z,989.32
2017-12-13T17:28:59.625Z,989.30
2017-12-13T17:30:52.526Z,989.18
2017-12-13T17:31:52.560Z,989.23
2017-12-13T17:33:45.501Z,989.19
2017-12-13T17:34:45.487Z,989.14
2017-12-13T17:36:38.349Z,989.09
2017-12-13T17:37:38.366Z,989.07
2017-12-13T17:39:31.282Z,989.05
2017-12-13T17:40:31.278Z,988.99
2017-12-13T17:42:24.193Z,989.07